METAR Data
IDs: Format: Raw Decoded Include TAF

Data at: 2246 UTC 02 Aug 2021

KOKB 022152Z AUTO 25011G16KT 9SM CLR 26/18 A2996 RMK AO2 SLP144 T02610183
KOKB 022052Z AUTO 26008KT 10SM CLR 26/17 A2997 RMK AO2 SLP148 T02610167 58014
KOKB 021952Z AUTO 26010KT 9SM CLR 26/15 A2999 RMK AO2 SLP153 T02610150
KOKB 021852Z AUTO 26011KT 10SM CLR 27/16 A3000 RMK AO2 SLP157 T02670161
KOKB 021752Z AUTO 27006KT 9SM CLR 27/16 A3001 RMK AO2 SLP162 T02720156 10272 20133 58013
KOKB 021652Z AUTO 23005KT 9SM CLR 25/16 A3003 RMK AO2 SLP167 T02500161
KOKB 021552Z AUTO 00000KT 9SM CLR 22/16 A3004 RMK AO2 SLP173 T02220156
KOKB 021452Z AUTO 00000KT 9SM CLR 19/14 A3005 RMK AO2 SLP175 T01940144 51013
KOKB 021352Z AUTO 00000KT 6SM BR CLR 15/14 A3004 RMK AO2 SLP172 T01500139
KOKB 021252Z AUTO 00000KT 8SM CLR 13/12 A3003 RMK AO2 SLP167 T01330122
KOKB 021152Z AUTO 00000KT 7SM CLR 14/14 A3001 RMK AO2 SLP162 T01440139 10167 20133 53001
KOKB 021052Z AUTO 00000KT 8SM CLR 14/13 A3001 RMK AO2 SLP160 T01440133
KOKB 020952Z AUTO 31003KT 7SM CLR 14/13 A3001 RMK AO2 SLP160 T01440133
KOKB 020852Z AUTO 00000KT 7SM CLR 14/13 A3001 RMK AO2 SLP162 T01390133 58002
KOKB 020752Z AUTO 00000KT 8SM CLR 16/14 A3001 RMK AO2 SLP162 T01560144 402610144
KOKB 020652Z AUTO 00000KT 8SM CLR 15/14 A3002 RMK AO2 SLP164 T01500139
KOKB 020552Z AUTO 00000KT 8SM CLR 16/15 A3002 RMK AO2 SLP164 T01610150 10244 20161 50008
KOKB 020452Z AUTO 27003KT 8SM CLR 18/16 A3002 RMK AO2 SLP164 T01780161
KOKB 020352Z AUTO 23004KT 9SM CLR 19/17 A3000 RMK AO2 SLP159 T01890167
KOKB 020252Z AUTO 24007KT 8SM CLR 19/17 A2999 RMK AO2 SLP155 T01940167 53003
KOKB 020152Z AUTO 27009KT 10SM CLR 22/16 A2997 RMK AO2 SLP149 T02170161
KOKB 020052Z AUTO 25010KT 10SM CLR 23/17 A2997 RMK AO2 SLP149 T02280167
KOKB 012352Z AUTO 26011KT 10SM CLR 24/18 A2998 RMK AO2 SLP152 T02440178 10261 20222 58010
KOKB 012252Z AUTO 27011G15KT 10SM CLR 26/17 A3000 RMK AO2 SLP158 T02560172
KOKB 012152Z AUTO 26010KT 10SM CLR 26/17 A3000 RMK AO2 SLP159 T02560172
KOKB 012052Z AUTO 24010KT 10SM CLR 25/18 A3001 RMK AO2 SLP162 T02500178 58010
KOKB 011952Z AUTO 25010KT 10SM CLR 25/17 A3002 RMK AO2 SLP166 T02500167
KOKB 011852Z AUTO 25009KT 10SM CLR 23/17 A3003 RMK AO2 SLP169 T02330167
KOKB 011752Z AUTO 25010KT 10SM CLR 23/17 A3004 RMK AO2 SLP173 T02330167 10239 20167 58005
KOKB 011652Z AUTO 26008KT 9SM CLR 22/17 A3005 RMK AO2 SLP174 T02220167
KOKB 011612Z AUTO 00000KT 7SM SCT005 20/17 A3006 RMK AO2 T02000167
KOKB 011552Z AUTO 00000KT 6SM HZ OVC005 19/17 A3006 RMK AO2 CIG 002V006 SLP178 T01940167
KOKB 011527Z AUTO 00000KT 4SM BR OVC002 18/17 A3006 RMK AO2 T01780167
KOKB 011518Z AUTO 00000KT 2 1/2SM BR OVC002 18/17 A3006 RMK AO2 T01780167
KOKB 011452Z AUTO 00000KT 1SM BR OVC002 17/17 A3006 RMK AO2 SLP177 T01720167 51012
KOKB 011417Z AUTO 32003KT 3/4SM BR OVC002 17/17 A3005 RMK AO2 T01720167
KOKB 011352Z AUTO 32003KT 1 1/4SM BR OVC002 17/16 A3005 RMK AO2 SLP174 T01720161
KOKB 011325Z AUTO 00000KT 2 1/2SM BR OVC003 17/17 A3004 RMK AO2 T01720167
KOKB 011305Z AUTO 00000KT 1 1/4SM BR OVC003 17/17 A3004 RMK AO2 T01720167
KOKB 011252Z AUTO 00000KT 2 1/2SM BR OVC003 17/17 A3003 RMK AO2 SLP169 T01720167
KOKB 011200Z AUTO 00000KT 2SM BR OVC003 18/17 A3002 RMK AO2 T01780167
KOKB 011152Z AUTO 29003KT 3SM BR OVC003 18/17 A3002 RMK AO2 SLP165 T01780167 10178 20144 53005
KOKB 011140Z AUTO 00000KT 3SM BR OVC003 17/17 A3002 RMK AO2 T01720167
KOKB 011129Z AUTO 00000KT 1 3/4SM BR OVC003 17/17 A3002 RMK AO2 T01720167
KOKB 011052Z AUTO 00000KT 3SM BR OVC003 17/17 A3001 RMK AO2 SLP162 T01720167